sensor_id;sensor_type;location;lat;lon;timestamp;temperature;humidity
39875;DHT22;25547;52.530;13.194;2022-12-11T00:01:26;-0.60;99.90
39875;DHT22;25547;52.530;13.194;2022-12-11T00:03:52;-0.60;99.90
39875;DHT22;25547;52.530;13.194;2022-12-11T00:06:20;-0.50;99.90
39875;DHT22;25547;52.530;13.194;2022-12-11T00:08:52;-0.60;99.90
39875;DHT22;25547;52.530;13.194;2022-12-11T00:11:19;-0.50;99.90
39875;DHT22;25547;52.530;13.194;2022-12-11T00:13:45;-0.50;99.90
39875;DHT22;25547;52.530;13.194;2022-12-11T00:16:13;-0.50;99.90
39875;DHT22;25547;52.530;13.194;2022-12-11T00:18:39;-0.40;99.90
39875;DHT22;25547;52.530;13.194;2022-12-11T00:21:09;-0.50;99.90
39875;DHT22;25547;52.530;13.194;2022-12-11T00:23:37;-0.50;99.90
39875;DHT22;25547;52.530;13.194;2022-12-11T00:26:10;-0.40;99.90
39875;DHT22;25547;52.530;13.194;2022-12-11T00:28:36;-0.40;99.90
39875;DHT22;25547;52.530;13.194;2022-12-11T00:31:07;-0.50;99.90
39875;DHT22;25547;52.530;13.194;2022-12-11T00:33:33;-0.50;99.90
39875;DHT22;25547;52.530;13.194;2022-12-11T00:36:01;-0.50;99.90
39875;DHT22;25547;52.530;13.194;2022-12-11T00:38:27;-0.50;99.90
39875;DHT22;25547;52.530;13.194;2022-12-11T00:40:57;-0.50;99.90
39875;DHT22;25547;52.530;13.194;2022-12-11T00:43:23;-0.60;99.90
39875;DHT22;25547;52.530;13.194;2022-12-11T00:45:51;-0.70;99.90
39875;DHT22;25547;52.530;13.194;2022-12-11T00:48:17;-0.60;99.90
39875;DHT22;25547;52.530;13.194;2022-12-11T00:50:45;-0.60;99.90
39875;DHT22;25547;52.530;13.194;2022-12-11T00:53:11;-0.60;99.90
39875;DHT22;25547;52.530;13.194;2022-12-11T00:55:39;-0.50;99.90
39875;DHT22;25547;52.530;13.194;2022-12-11T00:58:05;-0.60;99.90
39875;DHT22;25547;52.530;13.194;2022-12-11T01:00:32;-0.50;99.90
39875;DHT22;25547;52.530;13.194;2022-12-11T01:02:59;-0.50;99.90
39875;DHT22;25547;52.530;13.194;2022-12-11T01:05:26;-0.60;99.90
39875;DHT22;25547;52.530;13.194;2022-12-11T01:07:51;-0.50;99.90
39875;DHT22;25547;52.530;13.194;2022-12-11T01:10:17;-0.50;99.90
39875;DHT22;25547;52.530;13.194;2022-12-11T01:12:56;-0.50;99.90
39875;DHT22;25547;52.530;13.194;2022-12-11T01:15:25;-0.50;99.90
39875;DHT22;25547;52.530;13.194;2022-12-11T01:17:54;-0.40;99.90
39875;DHT22;25547;52.530;13.194;2022-12-11T01:20:24;-0.50;99.90
39875;DHT22;25547;52.530;13.194;2022-12-11T01:22:55;-0.60;99.90
39875;DHT22;25547;52.530;13.194;2022-12-11T01:25:22;-0.60;99.90
39875;DHT22;25547;52.530;13.194;2022-12-11T01:27:52;-0.70;99.90
39875;DHT22;25547;52.530;13.194;2022-12-11T01:30:20;-0.70;99.90
39875;DHT22;25547;52.530;13.194;2022-12-11T01:32:46;-0.70;99.90
39875;DHT22;25547;52.530;13.194;2022-12-11T01:35:13;-0.70;99.90
39875;DHT22;25547;52.530;13.194;2022-12-11T01:37:39;-0.70;99.90
39875;DHT22;25547;52.530;13.194;2022-12-11T01:40:06;-0.70;99.90
39875;DHT22;25547;52.530;13.194;2022-12-11T01:42:33;-0.70;99.90
39875;DHT22;25547;52.530;13.194;2022-12-11T01:48:18;-0.50;99.90
39875;DHT22;25547;52.530;13.194;2022-12-11T01:50:52;-0.60;99.90
39875;DHT22;25547;52.530;13.194;2022-12-11T01:53:31;-0.50;99.90
39875;DHT22;25547;52.530;13.194;2022-12-11T01:56:01;-0.50;99.90
39875;DHT22;25547;52.530;13.194;2022-12-11T01:58:41;-0.50;99.90
39875;DHT22;25547;52.530;13.194;2022-12-11T02:01:12;-0.60;99.90
39875;DHT22;25547;52.530;13.194;2022-12-11T02:03:39;-0.60;99.90
39875;DHT22;25547;52.530;13.194;2022-12-11T02:06:05;-0.70;99.90
39875;DHT22;25547;52.530;13.194;2022-12-11T02:08:33;-0.80;99.90
39875;DHT22;25547;52.530;13.194;2022-12-11T02:11:08;-0.70;99.90
39875;DHT22;25547;52.530;13.194;2022-12-11T02:16:20;-0.70;99.90
39875;DHT22;25547;52.530;13.194;2022-12-11T02:19:02;-0.70;99.90
39875;DHT22;25547;52.530;13.194;2022-12-11T02:21:37;-0.70;99.90
39875;DHT22;25547;52.530;13.194;2022-12-11T02:30:21;-0.50;99.90
39875;DHT22;25547;52.530;13.194;2022-12-11T02:33:00;-0.50;99.90
39875;DHT22;25547;52.530;13.194;2022-12-11T02:35:55;-0.50;99.90
39875;DHT22;25547;52.530;13.194;2022-12-11T02:38:29;-0.60;99.90
39875;DHT22;25547;52.530;13.194;2022-12-11T02:40:59;-0.70;99.90
39875;DHT22;25547;52.530;13.194;2022-12-11T02:43:26;-0.90;99.90
39875;DHT22;25547;52.530;13.194;2022-12-11T02:45:58;-0.80;99.90
39875;DHT22;25547;52.530;13.194;2022-12-11T02:48:25;-0.80;99.90
39875;DHT22;25547;52.530;13.194;2022-12-11T02:50:55;-0.70;99.90
39875;DHT22;25547;52.530;13.194;2022-12-11T02:53:25;-0.60;99.90
39875;DHT22;25547;52.530;13.194;2022-12-11T02:56:05;-0.60;99.90
39875;DHT22;25547;52.530;13.194;2022-12-11T02:58:33;-0.60;99.90
39875;DHT22;25547;52.530;13.194;2022-12-11T03:01:01;-0.60;99.90
39875;DHT22;25547;52.530;13.194;2022-12-11T03:03:28;-0.60;99.90
39875;DHT22;25547;52.530;13.194;2022-12-11T03:05:57;-0.60;99.90
39875;DHT22;25547;52.530;13.194;2022-12-11T03:08:23;-0.60;99.90
39875;DHT22;25547;52.530;13.194;2022-12-11T03:10:49;-0.60;99.90
39875;DHT22;25547;52.530;13.194;2022-12-11T03:13:18;-0.60;99.90
39875;DHT22;25547;52.530;13.194;2022-12-11T03:16:14;-0.60;99.90
39875;DHT22;25547;52.530;13.194;2022-12-11T03:21:35;-0.60;99.90
39875;DHT22;25547;52.530;13.194;2022-12-11T03:24:08;-0.60;99.90
39875;DHT22;25547;52.530;13.194;2022-12-11T03:26:39;-0.60;99.90
39875;DHT22;25547;52.530;13.194;2022-12-11T03:29:19;-0.60;99.90
39875;DHT22;25547;52.530;13.194;2022-12-11T03:32:21;-0.60;99.90
39875;DHT22;25547;52.530;13.194;2022-12-11T03:34:58;-0.60;99.90
39875;DHT22;25547;52.530;13.194;2022-12-11T03:37:28;-0.60;99.90
39875;DHT22;25547;52.530;13.194;2022-12-11T03:39:58;-0.50;99.90
39875;DHT22;25547;52.530;13.194;2022-12-11T03:42:28;-0.60;99.90
39875;DHT22;25547;52.530;13.194;2022-12-11T03:44:58;-0.60;99.90
39875;DHT22;25547;52.530;13.194;2022-12-11T03:47:26;-0.60;99.90
39875;DHT22;25547;52.530;13.194;2022-12-11T03:49:53;-0.60;99.90
39875;DHT22;25547;52.530;13.194;2022-12-11T03:52:22;-0.60;99.90
39875;DHT22;25547;52.530;13.194;2022-12-11T03:54:49;-0.50;99.90
39875;DHT22;25547;52.530;13.194;2022-12-11T03:57:21;-0.60;99.90
39875;DHT22;25547;52.530;13.194;2022-12-11T03:59:50;-0.60;99.90
39875;DHT22;25547;52.530;13.194;2022-12-11T04:02:19;-0.60;99.90
39875;DHT22;25547;52.530;13.194;2022-12-11T04:04:44;-0.60;99.90
39875;DHT22;25547;52.530;13.194;2022-12-11T04:07:15;-0.60;99.90
39875;DHT22;25547;52.530;13.194;2022-12-11T04:09:43;-0.60;99.90
39875;DHT22;25547;52.530;13.194;2022-12-11T04:12:09;-0.60;99.90
39875;DHT22;25547;52.530;13.194;2022-12-11T04:14:34;-0.70;99.90
39875;DHT22;25547;52.530;13.194;2022-12-11T04:17:19;-0.70;99.90
39875;DHT22;25547;52.530;13.194;2022-12-11T04:20:04;-0.60;99.90
39875;DHT22;25547;52.530;13.194;2022-12-11T04:22:48;-0.60;99.90
39875;DHT22;25547;52.530;13.194;2022-12-11T04:25:33;-0.60;99.90
39875;DHT22;25547;52.530;13.194;2022-12-11T04:27:58;-0.50;99.90
39875;DHT22;25547;52.530;13.194;2022-12-11T04:30:27;-0.60;99.90
39875;DHT22;25547;52.530;13.194;2022-12-11T04:32:53;-0.60;99.90
39875;DHT22;25547;52.530;13.194;2022-12-11T04:35:22;-0.60;99.90
39875;DHT22;25547;52.530;13.194;2022-12-11T04:37:54;-0.60;99.90
39875;DHT22;25547;52.530;13.194;2022-12-11T04:40:23;-0.60;99.90
39875;DHT22;25547;52.530;13.194;2022-12-11T04:42:49;-0.60;99.90
39875;DHT22;25547;52.530;13.194;2022-12-11T04:45:17;-0.60;99.90
39875;DHT22;25547;52.530;13.194;2022-12-11T04:47:45;-0.60;99.90
39875;DHT22;25547;52.530;13.194;2022-12-11T04:50:17;-0.50;99.90
39875;DHT22;25547;52.530;13.194;2022-12-11T04:52:42;-0.60;99.90
39875;DHT22;25547;52.530;13.194;2022-12-11T04:55:13;-0.60;99.90
39875;DHT22;25547;52.530;13.194;2022-12-11T04:57:44;-0.50;99.90
39875;DHT22;25547;52.530;13.194;2022-12-11T05:00:11;-0.50;99.90
39875;DHT22;25547;52.530;13.194;2022-12-11T05:02:38;-0.50;99.90
39875;DHT22;25547;52.530;13.194;2022-12-11T05:05:06;-0.50;99.90
39875;DHT22;25547;52.530;13.194;2022-12-11T05:07:34;-0.60;99.90
39875;DHT22;25547;52.530;13.194;2022-12-11T05:10:02;-0.50;99.90
39875;DHT22;25547;52.530;13.194;2022-12-11T05:12:31;-0.60;99.90
39875;DHT22;25547;52.530;13.194;2022-12-11T05:14:59;-0.80;99.90
39875;DHT22;25547;52.530;13.194;2022-12-11T05:17:25;-0.70;99.90
39875;DHT22;25547;52.530;13.194;2022-12-11T05:19:55;-0.60;99.90
39875;DHT22;25547;52.530;13.194;2022-12-11T05:22:21;-0.60;99.90
39875;DHT22;25547;52.530;13.194;2022-12-11T05:24:47;-0.60;99.90
39875;DHT22;25547;52.530;13.194;2022-12-11T05:27:13;-0.60;99.90
39875;DHT22;25547;52.530;13.194;2022-12-11T05:29:39;-0.60;99.90
39875;DHT22;25547;52.530;13.194;2022-12-11T05:32:08;-0.50;99.90
39875;DHT22;25547;52.530;13.194;2022-12-11T05:34:34;-0.60;99.90
39875;DHT22;25547;52.530;13.194;2022-12-11T05:37:03;-0.70;99.90
39875;DHT22;25547;52.530;13.194;2022-12-11T05:39:29;-0.70;99.90
39875;DHT22;25547;52.530;13.194;2022-12-11T05:41:55;-0.70;99.90
39875;DHT22;25547;52.530;13.194;2022-12-11T05:44:21;-0.70;99.90
39875;DHT22;25547;52.530;13.194;2022-12-11T05:46:50;-0.70;99.90
39875;DHT22;25547;52.530;13.194;2022-12-11T05:49:15;-0.70;99.90
39875;DHT22;25547;52.530;13.194;2022-12-11T05:51:43;-0.70;99.90
39875;DHT22;25547;52.530;13.194;2022-12-11T05:54:10;-0.70;99.90
39875;DHT22;25547;52.530;13.194;2022-12-11T05:56:38;-0.70;99.90
39875;DHT22;25547;52.530;13.194;2022-12-11T05:59:04;-0.70;99.90
39875;DHT22;25547;52.530;13.194;2022-12-11T06:01:36;-0.80;99.90
39875;DHT22;25547;52.530;13.194;2022-12-11T06:04:09;-0.80;99.90
39875;DHT22;25547;52.530;13.194;2022-12-11T06:06:35;-0.70;99.90
39875;DHT22;25547;52.530;13.194;2022-12-11T06:09:04;-0.70;99.90
39875;DHT22;25547;52.530;13.194;2022-12-11T06:11:31;-0.70;99.90
39875;DHT22;25547;52.530;13.194;2022-12-11T06:13:57;-0.70;99.90
39875;DHT22;25547;52.530;13.194;2022-12-11T06:16:24;-0.70;99.90
39875;DHT22;25547;52.530;13.194;2022-12-11T06:18:49;-0.80;99.90
39875;DHT22;25547;52.530;13.194;2022-12-11T06:21:22;-0.90;99.90
39875;DHT22;25547;52.530;13.194;2022-12-11T06:23:50;-0.80;99.90
39875;DHT22;25547;52.530;13.194;2022-12-11T06:26:17;-0.70;99.90
39875;DHT22;25547;52.530;13.194;2022-12-11T06:28:43;-0.80;99.90
39875;DHT22;25547;52.530;13.194;2022-12-11T06:31:09;-0.80;99.90
39875;DHT22;25547;52.530;13.194;2022-12-11T06:33:38;-0.80;99.90
39875;DHT22;25547;52.530;13.194;2022-12-11T06:36:10;-0.80;99.90
39875;DHT22;25547;52.530;13.194;2022-12-11T06:38:36;-0.80;99.90
39875;DHT22;25547;52.530;13.194;2022-12-11T06:41:04;-0.70;99.90
39875;DHT22;25547;52.530;13.194;2022-12-11T06:43:35;-0.70;99.90
39875;DHT22;25547;52.530;13.194;2022-12-11T06:46:09;-0.60;99.90
39875;DHT22;25547;52.530;13.194;2022-12-11T06:48:35;-0.60;99.90
39875;DHT22;25547;52.530;13.194;2022-12-11T06:51:10;-0.70;99.90
39875;DHT22;25547;52.530;13.194;2022-12-11T06:53:37;-0.70;99.90
39875;DHT22;25547;52.530;13.194;2022-12-11T06:56:08;-0.70;99.90
39875;DHT22;25547;52.530;13.194;2022-12-11T06:58:35;-0.80;99.90
39875;DHT22;25547;52.530;13.194;2022-12-11T07:01:04;-0.70;99.90
39875;DHT22;25547;52.530;13.194;2022-12-11T07:03:36;-0.70;99.90
39875;DHT22;25547;52.530;13.194;2022-12-11T07:06:05;-0.70;99.90
39875;DHT22;25547;52.530;13.194;2022-12-11T07:08:30;-0.80;99.90
39875;DHT22;25547;52.530;13.194;2022-12-11T07:11:07;-0.80;99.90
39875;DHT22;25547;52.530;13.194;2022-12-11T07:13:33;-0.90;99.90
39875;DHT22;25547;52.530;13.194;2022-12-11T07:16:00;-0.90;99.90
39875;DHT22;25547;52.530;13.194;2022-12-11T07:18:26;-0.90;99.90
39875;DHT22;25547;52.530;13.194;2022-12-11T07:20:52;-0.90;99.90
39875;DHT22;25547;52.530;13.194;2022-12-11T07:23:18;-0.90;99.90
39875;DHT22;25547;52.530;13.194;2022-12-11T07:25:44;-0.90;99.90
39875;DHT22;25547;52.530;13.194;2022-12-11T07:28:10;-0.90;99.90
39875;DHT22;25547;52.530;13.194;2022-12-11T07:30:39;-0.90;99.90
39875;DHT22;25547;52.530;13.194;2022-12-11T07:33:05;-0.80;99.90
39875;DHT22;25547;52.530;13.194;2022-12-11T07:35:33;-0.90;99.90
39875;DHT22;25547;52.530;13.194;2022-12-11T07:37:59;-1.00;99.90
39875;DHT22;25547;52.530;13.194;2022-12-11T07:40:25;-0.90;99.90
39875;DHT22;25547;52.530;13.194;2022-12-11T07:42:53;-0.80;99.90
39875;DHT22;25547;52.530;13.194;2022-12-11T07:45:19;-0.80;99.90
39875;DHT22;25547;52.530;13.194;2022-12-11T07:47:45;-0.80;99.90
39875;DHT22;25547;52.530;13.194;2022-12-11T07:50:11;-0.90;99.90
39875;DHT22;25547;52.530;13.194;2022-12-11T07:52:36;-0.80;99.90
39875;DHT22;25547;52.530;13.194;2022-12-11T07:55:02;-0.80;99.90
39875;DHT22;25547;52.530;13.194;2022-12-11T07:57:30;-0.80;99.90
39875;DHT22;25547;52.530;13.194;2022-12-11T07:59:56;-0.90;99.90
39875;DHT22;25547;52.530;13.194;2022-12-11T08:02:24;-1.00;99.90
39875;DHT22;25547;52.530;13.194;2022-12-11T08:04:50;-1.00;99.90
39875;DHT22;25547;52.530;13.194;2022-12-11T08:07:15;-1.00;99.90
39875;DHT22;25547;52.530;13.194;2022-12-11T08:09:41;-1.10;99.90
39875;DHT22;25547;52.530;13.194;2022-12-11T08:12:07;-1.00;99.90
39875;DHT22;25547;52.530;13.194;2022-12-11T08:14:35;-1.00;99.90
39875;DHT22;25547;52.530;13.194;2022-12-11T08:17:04;-1.10;99.90
39875;DHT22;25547;52.530;13.194;2022-12-11T08:19:29;-1.00;99.90
39875;DHT22;25547;52.530;13.194;2022-12-11T08:21:58;-0.90;99.90
39875;DHT22;25547;52.530;13.194;2022-12-11T08:24:24;-1.00;99.90
39875;DHT22;25547;52.530;13.194;2022-12-11T08:26:49;-0.90;99.90
39875;DHT22;25547;52.530;13.194;2022-12-11T08:29:15;-0.90;99.90
39875;DHT22;25547;52.530;13.194;2022-12-11T08:31:41;-0.90;99.90
39875;DHT22;25547;52.530;13.194;2022-12-11T08:34:07;-1.00;99.90
39875;DHT22;25547;52.530;13.194;2022-12-11T08:36:38;-0.90;99.90
39875;DHT22;25547;52.530;13.194;2022-12-11T08:39:04;-1.00;99.90
39875;DHT22;25547;52.530;13.194;2022-12-11T08:41:33;-0.90;99.90
39875;DHT22;25547;52.530;13.194;2022-12-11T08:44:01;-0.90;99.90
39875;DHT22;25547;52.530;13.194;2022-12-11T08:46:31;-0.90;99.90
39875;DHT22;25547;52.530;13.194;2022-12-11T08:48:57;-0.90;99.90
39875;DHT22;25547;52.530;13.194;2022-12-11T08:51:25;-0.90;99.90
39875;DHT22;25547;52.530;13.194;2022-12-11T08:53:54;-0.90;99.90
39875;DHT22;25547;52.530;13.194;2022-12-11T08:56:20;-1.00;99.90
39875;DHT22;25547;52.530;13.194;2022-12-11T08:58:48;-1.00;99.90
39875;DHT22;25547;52.530;13.194;2022-12-11T09:01:22;-0.90;99.90
39875;DHT22;25547;52.530;13.194;2022-12-11T09:03:55;-0.80;99.90
39875;DHT22;25547;52.530;13.194;2022-12-11T09:06:25;-0.80;99.90
39875;DHT22;25547;52.530;13.194;2022-12-11T09:08:52;-0.80;99.90
39875;DHT22;25547;52.530;13.194;2022-12-11T09:11:20;-0.80;99.90
39875;DHT22;25547;52.530;13.194;2022-12-11T09:13:46;-0.90;99.90
39875;DHT22;25547;52.530;13.194;2022-12-11T09:16:15;-0.90;99.90
39875;DHT22;25547;52.530;13.194;2022-12-11T09:18:43;-0.90;99.90
39875;DHT22;25547;52.530;13.194;2022-12-11T09:21:13;-0.80;99.90
39875;DHT22;25547;52.530;13.194;2022-12-11T09:23:41;-0.80;99.90
39875;DHT22;25547;52.530;13.194;2022-12-11T09:26:09;-0.90;99.90
39875;DHT22;25547;52.530;13.194;2022-12-11T09:28:36;-0.90;99.90
39875;DHT22;25547;52.530;13.194;2022-12-11T09:31:12;-0.80;99.90
39875;DHT22;25547;52.530;13.194;2022-12-11T09:33:39;-0.80;99.90
39875;DHT22;25547;52.530;13.194;2022-12-11T09:36:07;-0.90;99.90
39875;DHT22;25547;52.530;13.194;2022-12-11T09:38:33;-0.80;99.90
39875;DHT22;25547;52.530;13.194;2022-12-11T09:44:05;-0.70;99.90
39875;DHT22;25547;52.530;13.194;2022-12-11T09:46:33;-0.70;99.90
39875;DHT22;25547;52.530;13.194;2022-12-11T09:49:10;-0.80;99.90
39875;DHT22;25547;52.530;13.194;2022-12-11T09:51:44;-0.80;99.90
39875;DHT22;25547;52.530;13.194;2022-12-11T09:54:14;-0.80;99.90
39875;DHT22;25547;52.530;13.194;2022-12-11T10:08:29;-0.80;99.90
39875;DHT22;25547;52.530;13.194;2022-12-11T10:11:13;-0.90;99.90
39875;DHT22;25547;52.530;13.194;2022-12-11T10:14:09;-0.90;99.90
39875;DHT22;25547;52.530;13.194;2022-12-11T10:16:44;-1.00;99.90
39875;DHT22;25547;52.530;13.194;2022-12-11T10:19:20;-0.90;99.90
39875;DHT22;25547;52.530;13.194;2022-12-11T10:21:48;-0.90;99.90
39875;DHT22;25547;52.530;13.194;2022-12-11T10:26:47;-0.90;99.90
39875;DHT22;25547;52.530;13.194;2022-12-11T10:29:14;-0.80;99.90
39875;DHT22;25547;52.530;13.194;2022-12-11T10:31:49;-0.80;99.90
39875;DHT22;25547;52.530;13.194;2022-12-11T10:34:35;-0.80;99.90
39875;DHT22;25547;52.530;13.194;2022-12-11T10:37:05;-0.80;99.90
39875;DHT22;25547;52.530;13.194;2022-12-11T10:39:31;-0.70;99.90
39875;DHT22;25547;52.530;13.194;2022-12-11T10:41:57;-0.70;99.90
39875;DHT22;25547;52.530;13.194;2022-12-11T10:44:27;-0.80;99.90
39875;DHT22;25547;52.530;13.194;2022-12-11T10:49:32;-0.70;99.90
39875;DHT22;25547;52.530;13.194;2022-12-11T10:51:58;-0.70;99.90
39875;DHT22;25547;52.530;13.194;2022-12-11T10:56:52;-0.70;99.90
39875;DHT22;25547;52.530;13.194;2022-12-11T10:59:36;-0.60;99.90
39875;DHT22;25547;52.530;13.194;2022-12-11T11:02:04;-0.60;99.90
39875;DHT22;25547;52.530;13.194;2022-12-11T11:04:34;-0.60;99.90
39875;DHT22;25547;52.530;13.194;2022-12-11T11:09:39;-0.60;99.90
39875;DHT22;25547;52.530;13.194;2022-12-11T11:12:23;-0.60;99.90
39875;DHT22;25547;52.530;13.194;2022-12-11T11:15:02;-0.60;99.90
39875;DHT22;25547;52.530;13.194;2022-12-11T11:17:30;-0.60;99.90
39875;DHT22;25547;52.530;13.194;2022-12-11T11:20:03;-0.50;99.90
39875;DHT22;25547;52.530;13.194;2022-12-11T11:22:31;-0.60;99.90
39875;DHT22;25547;52.530;13.194;2022-12-11T11:24:58;-0.50;99.90
39875;DHT22;25547;52.530;13.194;2022-12-11T11:27:28;-0.50;99.90
39875;DHT22;25547;52.530;13.194;2022-12-11T11:29:57;-0.60;99.90
39875;DHT22;25547;52.530;13.194;2022-12-11T11:32:36;-0.50;99.90
39875;DHT22;25547;52.530;13.194;2022-12-11T11:37:40;-0.40;99.90
39875;DHT22;25547;52.530;13.194;2022-12-11T11:42:57;-0.60;99.90
39875;DHT22;25547;52.530;13.194;2022-12-11T11:45:35;-0.60;99.90
39875;DHT22;25547;52.530;13.194;2022-12-11T11:50:44;-0.60;99.90
39875;DHT22;25547;52.530;13.194;2022-12-11T11:53:21;-0.50;99.90
39875;DHT22;25547;52.530;13.194;2022-12-11T12:01:57;-0.40;99.90
39875;DHT22;25547;52.530;13.194;2022-12-11T12:04:26;-0.40;99.90
39875;DHT22;25547;52.530;13.194;2022-12-11T12:17:47;-0.30;99.90
39875;DHT22;25547;52.530;13.194;2022-12-11T12:20:45;-0.40;99.90
39875;DHT22;25547;52.530;13.194;2022-12-11T12:26:14;-0.30;99.90
39875;DHT22;25547;52.530;13.194;2022-12-11T12:37:43;-0.20;99.90
39875;DHT22;25547;52.530;13.194;2022-12-11T12:40:33;-0.20;99.90
39875;DHT22;25547;52.530;13.194;2022-12-11T12:46:26;-0.30;99.90
39875;DHT22;25547;52.530;13.194;2022-12-11T12:48:57;-0.30;99.90
39875;DHT22;25547;52.530;13.194;2022-12-11T12:51:23;-0.20;99.90
39875;DHT22;25547;52.530;13.194;2022-12-11T12:54:01;-0.20;99.90
39875;DHT22;25547;52.530;13.194;2022-12-11T12:56:30;-0.10;99.90
39875;DHT22;25547;52.530;13.194;2022-12-11T12:58:56;-0.10;99.90
39875;DHT22;25547;52.530;13.194;2022-12-11T13:01:27;-0.10;99.90
39875;DHT22;25547;52.530;13.194;2022-12-11T13:06:40;-0.10;99.90
39875;DHT22;25547;52.530;13.194;2022-12-11T13:09:28;0.00;99.90
39875;DHT22;25547;52.530;13.194;2022-12-11T13:11:55;0.00;99.90
39875;DHT22;25547;52.530;13.194;2022-12-11T13:14:31;-0.10;99.90
39875;DHT22;25547;52.530;13.194;2022-12-11T13:17:34;-0.10;99.90
39875;DHT22;25547;52.530;13.194;2022-12-11T13:20:14;-0.20;99.90
39875;DHT22;25547;52.530;13.194;2022-12-11T13:25:56;0.00;99.90
39875;DHT22;25547;52.530;13.194;2022-12-11T13:28:23;0.10;99.90
39875;DHT22;25547;52.530;13.194;2022-12-11T13:31:35;0.10;99.90
39875;DHT22;25547;52.530;13.194;2022-12-11T13:34:16;0.10;99.90
39875;DHT22;25547;52.530;13.194;2022-12-11T13:36:51;0.00;99.90
39875;DHT22;25547;52.530;13.194;2022-12-11T13:39:25;0.00;99.90
39875;DHT22;25547;52.530;13.194;2022-12-11T13:42:04;0.00;99.90
39875;DHT22;25547;52.530;13.194;2022-12-11T13:44:37;0.00;99.90
39875;DHT22;25547;52.530;13.194;2022-12-11T13:47:05;-0.10;99.90
39875;DHT22;25547;52.530;13.194;2022-12-11T13:49:37;-0.10;99.90
39875;DHT22;25547;52.530;13.194;2022-12-11T13:52:05;-0.10;99.90
39875;DHT22;25547;52.530;13.194;2022-12-11T13:54:34;-0.10;99.90
39875;DHT22;25547;52.530;13.194;2022-12-11T13:57:16;0.00;99.90
39875;DHT22;25547;52.530;13.194;2022-12-11T13:59:54;0.00;99.90
39875;DHT22;25547;52.530;13.194;2022-12-11T14:02:30;-0.10;99.90
39875;DHT22;25547;52.530;13.194;2022-12-11T14:05:08;0.00;99.90
39875;DHT22;25547;52.530;13.194;2022-12-11T14:07:37;0.00;99.90
39875;DHT22;25547;52.530;13.194;2022-12-11T14:15:19;0.00;99.90
39875;DHT22;25547;52.530;13.194;2022-12-11T14:17:45;0.00;99.90
39875;DHT22;25547;52.530;13.194;2022-12-11T14:20:33;0.00;99.90
39875;DHT22;25547;52.530;13.194;2022-12-11T14:23:24;0.00;99.90
39875;DHT22;25547;52.530;13.194;2022-12-11T14:25:57;-0.10;99.90
39875;DHT22;25547;52.530;13.194;2022-12-11T14:28:28;-0.10;99.90
39875;DHT22;25547;52.530;13.194;2022-12-11T14:30:57;-0.20;99.90
39875;DHT22;25547;52.530;13.194;2022-12-11T14:33:37;-0.10;99.90
39875;DHT22;25547;52.530;13.194;2022-12-11T14:36:05;-0.10;99.90
39875;DHT22;25547;52.530;13.194;2022-12-11T14:39:10;-0.10;99.90
39875;DHT22;25547;52.530;13.194;2022-12-11T14:41:45;-0.20;99.90
39875;DHT22;25547;52.530;13.194;2022-12-11T14:44:17;-0.20;99.90
39875;DHT22;25547;52.530;13.194;2022-12-11T14:46:49;-0.30;99.90
39875;DHT22;25547;52.530;13.194;2022-12-11T14:52:22;-0.20;99.90
39875;DHT22;25547;52.530;13.194;2022-12-11T14:54:53;-0.20;99.90
39875;DHT22;25547;52.530;13.194;2022-12-11T14:57:25;-0.20;99.90
39875;DHT22;25547;52.530;13.194;2022-12-11T14:59:54;-0.10;99.90
39875;DHT22;25547;52.530;13.194;2022-12-11T15:07:28;-0.20;99.90
39875;DHT22;25547;52.530;13.194;2022-12-11T15:09:54;-0.20;99.90
39875;DHT22;25547;52.530;13.194;2022-12-11T15:12:20;-0.30;99.90
39875;DHT22;25547;52.530;13.194;2022-12-11T15:14:58;-0.20;99.90
39875;DHT22;25547;52.530;13.194;2022-12-11T15:17:28;-0.30;99.90
39875;DHT22;25547;52.530;13.194;2022-12-11T15:20:21;-0.30;99.90
39875;DHT22;25547;52.530;13.194;2022-12-11T15:22:48;-0.30;99.90
39875;DHT22;25547;52.530;13.194;2022-12-11T15:25:22;-0.20;99.90
39875;DHT22;25547;52.530;13.194;2022-12-11T15:27:53;-0.20;99.90
39875;DHT22;25547;52.530;13.194;2022-12-11T15:35:30;-0.20;99.90
39875;DHT22;25547;52.530;13.194;2022-12-11T15:37:59;-0.20;99.90
39875;DHT22;25547;52.530;13.194;2022-12-11T15:40:26;-0.20;99.90
39875;DHT22;25547;52.530;13.194;2022-12-11T15:42:55;-0.20;99.90
39875;DHT22;25547;52.530;13.194;2022-12-11T15:45:24;-0.20;99.90
39875;DHT22;25547;52.530;13.194;2022-12-11T15:47:51;-0.20;99.90
39875;DHT22;25547;52.530;13.194;2022-12-11T15:50:23;-0.20;99.90
39875;DHT22;25547;52.530;13.194;2022-12-11T15:52:51;-0.20;99.90
39875;DHT22;25547;52.530;13.194;2022-12-11T15:55:17;-0.20;99.90
39875;DHT22;25547;52.530;13.194;2022-12-11T16:00:18;-0.20;99.90
39875;DHT22;25547;52.530;13.194;2022-12-11T16:02:45;-0.20;99.90
39875;DHT22;25547;52.530;13.194;2022-12-11T16:05:13;-0.20;99.90
39875;DHT22;25547;52.530;13.194;2022-12-11T16:07:39;-0.30;99.90
39875;DHT22;25547;52.530;13.194;2022-12-11T16:10:06;-0.30;99.90
39875;DHT22;25547;52.530;13.194;2022-12-11T16:12:32;-0.20;99.90
39875;DHT22;25547;52.530;13.194;2022-12-11T16:14:58;-0.30;99.90
39875;DHT22;25547;52.530;13.194;2022-12-11T16:17:23;-0.30;99.90
39875;DHT22;25547;52.530;13.194;2022-12-11T16:19:49;-0.30;99.90
39875;DHT22;25547;52.530;13.194;2022-12-11T16:22:15;-0.30;99.90
39875;DHT22;25547;52.530;13.194;2022-12-11T16:24:41;-0.40;99.90
39875;DHT22;25547;52.530;13.194;2022-12-11T16:27:07;-0.40;99.90
39875;DHT22;25547;52.530;13.194;2022-12-11T16:29:39;-0.40;99.90
39875;DHT22;25547;52.530;13.194;2022-12-11T16:32:08;-0.40;99.90
39875;DHT22;25547;52.530;13.194;2022-12-11T16:34:36;-0.40;99.90
39875;DHT22;25547;52.530;13.194;2022-12-11T16:37:03;-0.30;99.90
39875;DHT22;25547;52.530;13.194;2022-12-11T16:39:29;-0.20;99.90
39875;DHT22;25547;52.530;13.194;2022-12-11T16:41:55;-0.20;99.90
39875;DHT22;25547;52.530;13.194;2022-12-11T16:44:23;-0.30;99.90
39875;DHT22;25547;52.530;13.194;2022-12-11T16:46:50;-0.20;99.90
39875;DHT22;25547;52.530;13.194;2022-12-11T16:49:16;-0.20;99.90
39875;DHT22;25547;52.530;13.194;2022-12-11T16:51:42;-0.20;99.90
39875;DHT22;25547;52.530;13.194;2022-12-11T16:54:11;-0.30;99.90
39875;DHT22;25547;52.530;13.194;2022-12-11T16:56:37;-0.30;99.90
39875;DHT22;25547;52.530;13.194;2022-12-11T16:59:06;-0.30;99.90
39875;DHT22;25547;52.530;13.194;2022-12-11T17:01:35;-0.20;99.90
39875;DHT22;25547;52.530;13.194;2022-12-11T17:04:01;-0.20;99.90
39875;DHT22;25547;52.530;13.194;2022-12-11T17:06:27;-0.20;99.90
39875;DHT22;25547;52.530;13.194;2022-12-11T17:08:55;-0.30;99.90
39875;DHT22;25547;52.530;13.194;2022-12-11T17:11:21;-0.30;99.90
39875;DHT22;25547;52.530;13.194;2022-12-11T17:13:59;-0.20;99.90
39875;DHT22;25547;52.530;13.194;2022-12-11T17:16:27;-0.20;99.90
39875;DHT22;25547;52.530;13.194;2022-12-11T17:18:59;-0.20;99.90
39875;DHT22;25547;52.530;13.194;2022-12-11T17:21:27;-0.20;99.90
39875;DHT22;25547;52.530;13.194;2022-12-11T17:23:55;-0.20;99.90